Time;durP1;ratioP1;P1;durP2;ratioP2;P2;SDS_P1;SDS_P2;PMS_P1;PMS_P2;Temp;Humidity;BMP_temperature;BMP_pressure;BME280_temperature;BME280_humidity;BME280_pressure;Samples;Min_cycle;Max_cycle;Signal;HPM_P1;HPM_P2
2023/09/14 00:01:01;;;;;;;0.20;0.20;;;;;;;17.23;71.77;94768.38;5056367;28;20280;-73
2023/09/14 00:03:28;;;;;;;2.20;1.10;;;;;;;17.21;71.46;94760.56;5055839;28;20203;-73
2023/09/14 00:05:54;;;;;;;1.73;1.30;;;;;;;17.17;71.24;94753.44;5052604;28;20207;-73
2023/09/14 00:08:23;;;;;;;1.45;1.20;;;;;;;17.16;71.91;94762.81;5052248;28;20211;-73
2023/09/14 00:10:54;;;;;;;0.20;0.20;;;;;;;17.14;72.02;94754.97;5052214;28;20204;-73
2023/09/14 00:13:21;;;;;;;0.20;0.20;;;;;;;17.07;71.80;94757.59;5051629;28;20244;-73
2023/09/14 00:15:47;;;;;;;0.32;0.32;;;;;;;17.04;72.15;94761.84;5051774;28;20565;-73
2023/09/14 00:18:15;;;;;;;0.20;0.20;;;;;;;16.84;73.35;94768.50;5052326;28;20656;-73
2023/09/14 00:20:42;;;;;;;0.20;0.20;;;;;;;16.81;73.19;94769.22;5055607;28;20644;-73
2023/09/14 00:23:08;;;;;;;0.10;0.10;;;;;;;16.82;72.94;94765.34;5051889;28;20261;-72
2023/09/14 00:25:37;;;;;;;0.20;0.20;;;;;;;16.90;72.47;94766.28;5052467;28;20674;-72
2023/09/14 00:28:04;;;;;;;1.80;1.00;;;;;;;16.99;72.38;94764.88;5051999;28;20204;-73
2023/09/14 00:30:31;;;;;;;0.20;0.20;;;;;;;16.98;72.30;94768.75;5052002;28;20203;-73
2023/09/14 00:32:57;;;;;;;0.20;0.20;;;;;;;16.98;72.41;94766.03;5051481;28;20232;-73
2023/09/14 00:35:25;;;;;;;1.20;0.98;;;;;;;16.75;73.44;94776.19;5052265;28;20566;-72
2023/09/14 00:37:52;;;;;;;0.20;0.20;;;;;;;16.74;73.33;94771.84;5051526;28;20307;-72
2023/09/14 00:40:18;;;;;;;0.40;0.40;;;;;;;16.63;73.60;94768.13;5051816;28;20208;-73
2023/09/14 00:42:48;;;;;;;0.30;0.30;;;;;;;16.59;73.72;94767.25;5051460;28;20196;-73
2023/09/14 00:45:16;;;;;;;0.20;0.20;;;;;;;16.56;73.08;94757.81;5051596;28;20200;-73
2023/09/14 00:47:45;;;;;;;0.20;0.20;;;;;;;16.65;73.19;94760.38;5044358;28;20206;-73
2023/09/14 00:50:15;;;;;;;0.20;0.20;;;;;;;16.64;72.98;94766.97;5048536;28;20199;-73
2023/09/14 00:52:42;;;;;;;0.10;0.10;;;;;;;16.59;73.29;94767.25;5051170;28;20223;-73
2023/09/14 00:55:10;;;;;;;0.25;0.25;;;;;;;16.58;73.15;94771.91;5051992;28;20719;-73
2023/09/14 00:57:38;;;;;;;0.38;0.38;;;;;;;16.64;73.51;94753.31;5051376;28;20246;-71
2023/09/14 01:00:10;;;;;;;1.00;0.75;;;;;;;16.63;73.25;94768.13;5051373;28;20257;-70
2023/09/14 01:02:38;;;;;;;1.00;0.90;;;;;;;16.64;72.81;94758.78;5056247;28;20238;-71
2023/09/14 01:05:07;;;;;;;1.25;1.05;;;;;;;16.65;73.87;94766.63;5050968;28;20231;-71
2023/09/14 01:07:34;;;;;;;1.55;1.00;;;;;;;16.73;73.54;94767.53;5051576;28;20580;-70
2023/09/14 01:10:00;;;;;;;0.43;0.43;;;;;;;16.74;73.33;94763.66;5051279;28;20608;-71
2023/09/14 01:12:27;;;;;;;0.20;0.20;;;;;;;16.75;73.31;94759.75;5050893;28;20330;-71
2023/09/14 01:15:03;;;;;;;0.20;0.20;;;;;;;16.77;73.73;94757.44;5050711;28;20298;-71
2023/09/14 01:17:41;;;;;;;0.30;0.30;;;;;;;16.73;73.63;94748.38;5051212;28;20199;-70
2023/09/14 01:20:19;;;;;;;0.30;0.30;;;;;;;16.73;73.65;94750.31;5054211;28;20279;-72
2023/09/14 01:23:00;;;;;;;0.10;0.10;;;;;;;16.74;73.51;94758.19;5045455;28;20244;-71
2023/09/14 01:25:45;;;;;;;0.40;0.40;;;;;;;16.74;73.06;94760.13;5051222;28;20290;-72
2023/09/14 01:28:13;;;;;;;0.20;0.20;;;;;;;16.69;73.55;94755.72;5050954;28;20206;-70
2023/09/14 01:30:40;;;;;;;0.10;0.10;;;;;;;16.72;73.61;94760.47;5050871;28;20204;-71
2023/09/14 01:33:10;;;;;;;0.20;0.20;;;;;;;16.68;73.85;94765.09;5050640;28;20253;-71
2023/09/14 01:35:42;;;;;;;0.30;0.30;;;;;;;16.62;73.69;94758.31;5051030;28;20295;-70
2023/09/14 01:38:09;;;;;;;1.13;0.43;;;;;;;16.59;74.06;94767.25;5050427;28;20207;-71
2023/09/14 01:40:38;;;;;;;0.15;0.15;;;;;;;16.59;74.05;94770.75;5045464;28;20553;-71
2023/09/14 01:43:06;;;;;;;0.10;0.10;;;;;;;16.72;73.87;94765.94;5050694;28;20212;-70
2023/09/14 01:45:34;;;;;;;0.20;0.20;;;;;;;16.77;72.61;94773.06;5050698;28;20208;-70
2023/09/14 01:48:01;;;;;;;0.35;0.30;;;;;;;16.75;73.26;94765.22;5040380;28;20212;-70
2023/09/14 01:50:28;;;;;;;0.20;0.20;;;;;;;16.65;74.69;94771.31;5049516;28;20246;-70
2023/09/14 01:52:56;;;;;;;0.15;0.15;;;;;;;16.65;75.23;94776.78;5050041;28;20223;-71
2023/09/14 01:55:22;;;;;;;0.20;0.20;;;;;;;16.56;74.75;94767.94;5050766;28;20257;-70
2023/09/14 01:57:51;;;;;;;0.10;0.10;;;;;;;16.57;74.67;94766.81;5049949;28;20322;-71
2023/09/14 02:00:18;;;;;;;0.25;0.25;;;;;;;16.55;74.73;94769.09;5050361;28;20211;-71
2023/09/14 02:02:44;;;;;;;0.20;0.20;;;;;;;16.55;74.25;94764.44;5057659;28;20246;-71
2023/09/14 02:05:11;;;;;;;0.10;0.10;;;;;;;16.63;74.20;94773.59;5050324;28;20199;-70
2023/09/14 02:07:38;;;;;;;0.22;0.22;;;;;;;16.61;74.96;94760.25;5049967;28;20258;-70
2023/09/14 02:10:06;;;;;;;0.30;0.30;;;;;;;16.64;75.08;94769.72;5050367;28;20616;-74
2023/09/14 02:12:33;;;;;;;0.40;0.40;;;;;;;16.72;74.44;94768.69;5049718;28;20227;-71
2023/09/14 02:15:01;;;;;;;0.20;0.20;;;;;;;16.72;74.73;94771.41;5050174;28;20242;-71
2023/09/14 02:17:29;;;;;;;0.20;0.20;;;;;;;16.64;75.36;94775.19;5049990;28;20349;-71
2023/09/14 02:19:56;;;;;;;0.20;0.20;;;;;;;16.54;75.51;94767.53;5051792;28;20208;-71
2023/09/14 02:22:23;;;;;;;0.20;0.20;;;;;;;16.49;75.51;94778.78;5051493;28;20246;-71
2023/09/14 02:24:49;;;;;;;0.28;0.28;;;;;;;16.50;75.03;94777.63;5049816;28;20207;-71
2023/09/14 02:27:17;;;;;;;0.20;0.20;;;;;;;16.50;75.30;94770.22;5049899;28;20211;-71
2023/09/14 02:29:43;;;;;;;0.55;0.55;;;;;;;16.45;75.59;94778.69;5050208;28;20593;-70
2023/09/14 02:32:12;;;;;;;0.20;0.20;;;;;;;16.32;75.66;94780.78;5049475;28;20207;-71
2023/09/14 02:34:38;;;;;;;0.90;0.90;;;;;;;16.37;75.60;94781.66;5050220;28;20494;-71
2023/09/14 02:37:06;;;;;;;0.20;0.20;;;;;;;16.37;75.92;94782.44;5049558;28;20668;-71
2023/09/14 02:39:32;;;;;;;0.52;0.20;;;;;;;16.35;76.38;94774.59;5049585;28;20608;-71
2023/09/14 02:41:59;;;;;;;0.20;0.20;;;;;;;16.30;76.74;94776.81;5049754;28;20564;-71
2023/09/14 02:44:26;;;;;;;0.50;0.50;;;;;;;16.31;76.81;94768.28;5049660;28;20211;-71
2023/09/14 02:46:52;;;;;;;0.20;0.20;;;;;;;16.34;76.50;94767.56;5049215;28;20206;-71
2023/09/14 02:49:21;;;;;;;0.43;0.43;;;;;;;16.51;76.85;94766.31;5039842;28;20200;-71
2023/09/14 02:51:47;;;;;;;0.10;0.10;;;;;;;16.56;76.99;94757.00;5049549;28;20210;-71
2023/09/14 02:54:14;;;;;;;0.20;0.20;;;;;;;16.65;76.26;94755.69;5049721;28;20715;-70
2023/09/14 02:56:41;;;;;;;0.30;0.30;;;;;;;16.53;76.61;94752.28;5049986;28;20226;-71
2023/09/14 02:59:08;;;;;;;0.20;0.20;;;;;;;16.70;75.86;94754.56;5049630;28;20366;-71
2023/09/14 03:01:35;;;;;;;0.10;0.10;;;;;;;16.62;76.51;94744.63;5057144;28;20557;-70
2023/09/14 03:04:01;;;;;;;0.10;0.10;;;;;;;16.62;76.66;94744.63;5049598;28;20200;-71
2023/09/14 03:06:30;;;;;;;0.10;0.10;;;;;;;16.66;76.17;94751.00;5049476;28;20218;-71
2023/09/14 03:08:57;;;;;;;0.47;0.47;;;;;;;16.55;76.46;94760.91;5049403;28;20257;-71
2023/09/14 03:11:24;;;;;;;0.32;0.32;;;;;;;16.62;75.90;94766.53;5049902;28;20211;-71
2023/09/14 03:13:51;;;;;;;0.10;0.10;;;;;;;16.64;75.63;94762.31;5049061;28;20247;-70
2023/09/14 03:16:17;;;;;;;3.40;0.40;;;;;;;16.69;75.39;94755.72;5049312;28;20314;-70
2023/09/14 03:18:44;;;;;;;0.10;0.10;;;;;;;16.75;75.57;94758.97;5049807;28;20605;-71
2023/09/14 03:21:23;;;;;;;0.20;0.20;;;;;;;16.78;75.30;94763.72;5052619;28;20207;-70
2023/09/14 03:23:51;;;;;;;0.30;0.30;;;;;;;16.79;74.54;94768.84;5049089;28;20549;-70
2023/09/14 03:26:18;;;;;;;0.47;0.47;;;;;;;16.80;74.81;94767.69;5049415;28;20253;-71
2023/09/14 03:28:45;;;;;;;0.20;0.20;;;;;;;16.82;75.64;94770.81;5049418;28;20295;-75
2023/09/14 03:31:12;;;;;;;0.43;0.43;;;;;;;16.84;75.83;94773.19;5049502;28;20568;-75
2023/09/14 03:33:38;;;;;;;0.30;0.30;;;;;;;16.76;76.45;94775.03;5049096;28;20247;-75
2023/09/14 03:36:06;;;;;;;0.10;0.10;;;;;;;16.72;76.26;94770.63;5049137;28;20203;-75
2023/09/14 03:38:33;;;;;;;0.65;0.65;;;;;;;16.55;76.83;94767.16;5049368;28;20533;-73
2023/09/14 03:41:01;;;;;;;0.30;0.30;;;;;;;16.51;77.25;94771.00;5049393;28;20564;-73
2023/09/14 03:43:28;;;;;;;0.20;0.20;;;;;;;16.46;76.95;94763.06;5049344;28;20215;-73
2023/09/14 03:45:54;;;;;;;0.10;0.10;;;;;;;16.45;76.35;94766.97;5049283;28;20591;-72
2023/09/14 03:48:21;;;;;;;0.43;0.43;;;;;;;16.51;75.86;94765.53;5038881;28;20689;-73
2023/09/14 03:50:48;;;;;;;0.20;0.20;;;;;;;16.49;75.97;94767.84;5053281;28;20215;-74
2023/09/14 03:53:15;;;;;;;0.73;0.40;;;;;;;16.51;76.07;94773.75;5059599;28;20636;-73
2023/09/14 03:55:42;;;;;;;0.15;0.15;;;;;;;16.48;77.00;94774.44;5056267;28;20220;-73
2023/09/14 03:58:10;;;;;;;0.30;0.30;;;;;;;16.45;77.33;94772.44;5052706;28;20618;-73
2023/09/14 04:00:37;;;;;;;0.20;0.20;;;;;;;16.41;77.45;94777.81;5039839;28;20211;-73
2023/09/14 04:03:05;;;;;;;0.28;0.28;;;;;;;16.47;76.93;94783.81;5058685;28;20200;-73
2023/09/14 04:05:31;;;;;;;0.40;0.40;;;;;;;16.51;76.67;94781.94;5052899;28;20612;-73
2023/09/14 04:07:58;;;;;;;0.20;0.20;;;;;;;16.56;76.73;94773.44;5052125;28;20215;-73
2023/09/14 04:10:25;;;;;;;0.20;0.20;;;;;;;16.59;76.28;94778.19;5052021;28;20615;-73
2023/09/14 04:12:52;;;;;;;0.43;0.43;;;;;;;16.62;76.42;94782.94;5051781;28;20790;-73
2023/09/14 04:15:20;;;;;;;0.20;0.20;;;;;;;16.71;75.95;94786.25;5052354;28;20211;-73
2023/09/14 04:17:46;;;;;;;0.40;0.40;;;;;;;16.84;76.12;94782.19;5052596;28;20211;-73
2023/09/14 04:20:14;;;;;;;0.20;0.20;;;;;;;16.98;75.87;94785.19;5055089;28;20198;-74
2023/09/14 04:22:41;;;;;;;2.00;1.27;;;;;;;17.00;75.34;94779.34;5052516;28;20258;-72
2023/09/14 04:25:08;;;;;;;0.30;0.30;;;;;;;17.11;75.28;94783.06;5051954;28;20211;-72
2023/09/14 04:27:35;;;;;;;0.30;0.30;;;;;;;17.18;74.13;94793.34;5052115;28;20265;-72
2023/09/14 04:30:02;;;;;;;0.63;0.35;;;;;;;17.21;74.69;94789.91;5051901;28;20608;-73
2023/09/14 04:32:30;;;;;;;0.20;0.20;;;;;;;17.26;75.21;94784.09;5052245;28;20254;-73
2023/09/14 04:34:57;;;;;;;0.28;0.28;;;;;;;17.30;75.35;94790.44;5051734;28;20301;-73
2023/09/14 04:37:24;;;;;;;0.20;0.20;;;;;;;17.36;74.54;94797.16;5052103;28;20273;-73
2023/09/14 04:39:50;;;;;;;0.10;0.10;;;;;;;17.51;73.75;94795.44;5051537;28;20208;-73
2023/09/14 04:42:17;;;;;;;0.30;0.30;;;;;;;17.62;74.11;94794.47;5050952;28;20204;-72
2023/09/14 04:44:49;;;;;;;0.45;0.45;;;;;;;17.74;72.84;94799.00;5052160;28;20204;-72
2023/09/14 04:47:16;;;;;;;0.10;0.10;;;;;;;17.90;72.94;94790.59;5048125;28;20242;-73
2023/09/14 04:49:44;;;;;;;0.20;0.20;;;;;;;18.13;72.45;94787.78;5044536;28;20199;-72
2023/09/14 04:52:12;;;;;;;0.52;0.52;;;;;;;18.54;71.16;94783.19;5051024;28;20212;-72
2023/09/14 04:54:39;;;;;;;0.55;0.55;;;;;;;18.88;70.54;94795.75;5051575;28;20567;-72
2023/09/14 04:57:06;;;;;;;0.20;0.20;;;;;;;19.11;68.91;94785.44;5048336;28;20214;-72
2023/09/14 04:59:33;;;;;;;0.10;0.10;;;;;;;19.64;66.94;94787.88;5045934;28;20208;-72
2023/09/14 05:01:59;;;;;;;0.10;0.10;;;;;;;19.98;65.32;94793.19;5049813;28;20212;-73
2023/09/14 05:04:26;;;;;;;0.60;0.60;;;;;;;20.44;63.56;94786.00;5054703;28;20252;-72
2023/09/14 05:06:54;;;;;;;2.53;1.65;;;;;;;20.70;63.18;94784.13;5053510;28;20572;-72
2023/09/14 05:09:21;;;;;;;0.20;0.20;;;;;;;21.17;61.46;94783.88;5051376;28;20208;-72
2023/09/14 05:11:48;;;;;;;3.97;1.73;;;;;;;22.14;59.71;94784.69;5051219;28;20208;-73
2023/09/14 05:14:14;;;;;;;2.25;1.33;;;;;;;23.12;56.70;94782.72;5055487;28;20243;-70
2023/09/14 05:16:41;;;;;;;1.70;1.60;;;;;;;23.79;54.52;94784.25;5051257;28;20207;-71
2023/09/14 05:19:08;;;;;;;0.10;0.10;;;;;;;24.59;51.87;94783.09;5051269;28;20250;-72
2023/09/14 05:21:35;;;;;;;0.25;0.25;;;;;;;24.93;50.16;94785.81;5050889;28;20207;-71
2023/09/14 05:24:03;;;;;;;2.95;2.13;;;;;;;24.89;50.48;94787.84;5047065;28;20208;-74
2023/09/14 05:26:29;;;;;;;1.30;1.20;;;;;;;24.07;52.26;94789.53;5054630;28;20265;-75
2023/09/14 05:28:56;;;;;;;2.15;1.27;;;;;;;24.17;52.41;94789.84;5042876;28;20226;-75
2023/09/14 05:31:23;;;;;;;1.10;1.00;;;;;;;23.76;53.05;94787.84;5046118;28;20200;-75
2023/09/14 05:33:50;;;;;;;3.22;2.55;;;;;;;23.51;53.11;94781.69;5050305;28;20263;-76
2023/09/14 05:36:20;;;;;;;1.95;1.65;;;;;;;23.21;54.70;94785.84;5048254;28;20208;-75
2023/09/14 05:38:48;;;;;;;1.77;1.45;;;;;;;23.61;53.92;94781.63;5043492;28;20258;-75
2023/09/14 05:41:16;;;;;;;0.10;0.10;;;;;;;24.25;52.43;94781.06;5043805;28;20617;-73
2023/09/14 05:43:43;;;;;;;2.83;1.42;;;;;;;24.98;50.81;94777.09;5050138;28;20204;-76
2023/09/14 05:46:11;;;;;;;0.88;0.65;;;;;;;24.96;49.16;94779.47;5050389;28;20277;-75
2023/09/14 05:48:38;;;;;;;0.20;0.20;;;;;;;25.86;47.21;94777.75;5048746;28;20217;-76
2023/09/14 05:51:04;;;;;;;1.45;1.05;;;;;;;26.41;45.28;94776.41;5050217;28;20207;-75
2023/09/14 05:53:31;;;;;;;1.85;1.35;;;;;;;26.92;44.89;94772.22;5050360;28;20232;-75
2023/09/14 05:55:58;;;;;;;3.25;1.95;;;;;;;26.57;44.84;94776.50;5050354;28;20215;-74
2023/09/14 05:58:26;;;;;;;3.17;1.67;;;;;;;26.52;44.04;94782.53;5035750;28;20203;-73
2023/09/14 06:00:53;;;;;;;2.15;1.75;;;;;;;25.81;45.50;94786.56;5045477;28;20256;-75
2023/09/14 06:03:20;;;;;;;2.80;1.80;;;;;;;25.88;45.77;94780.88;5041447;28;20222;-75
2023/09/14 06:05:47;;;;;;;2.63;1.50;;;;;;;25.50;46.34;94781.06;5037331;28;20207;-74
2023/09/14 06:08:14;;;;;;;2.45;1.65;;;;;;;25.79;46.52;94775.09;5047820;28;20203;-76
2023/09/14 06:10:41;;;;;;;1.65;1.38;;;;;;;26.21;46.25;94773.56;5047284;28;20215;-75
2023/09/14 06:13:07;;;;;;;1.80;1.50;;;;;;;26.62;45.51;94773.22;5043705;28;20242;-76
2023/09/14 06:15:35;;;;;;;1.88;1.48;;;;;;;26.78;44.74;94766.94;5039081;28;20232;-74
2023/09/14 06:18:02;;;;;;;2.85;1.67;;;;;;;26.31;44.69;94766.28;5042432;28;22006;-74
2023/09/14 06:20:29;;;;;;;2.65;1.80;;;;;;;25.58;45.84;94776.19;5048680;28;20591;-75
2023/09/14 06:22:56;;;;;;;3.45;2.10;;;;;;;25.85;45.38;94773.41;5049124;28;20207;-75
2023/09/14 06:25:23;;;;;;;2.45;2.25;;;;;;;25.60;46.52;94776.56;5048744;28;20207;-74
2023/09/14 06:27:50;;;;;;;2.10;1.33;;;;;;;25.88;44.99;94778.13;5034532;28;20216;-75
2023/09/14 06:30:17;;;;;;;1.65;1.40;;;;;;;26.29;44.29;94785.38;5036671;28;20215;-74
2023/09/14 06:32:45;;;;;;;1.85;1.58;;;;;;;26.40;45.35;94774.81;5036177;28;20249;-74
2023/09/14 06:35:12;;;;;;;1.73;1.40;;;;;;;26.14;45.71;94779.25;5036664;28;20274;-74
2023/09/14 06:37:39;;;;;;;2.40;1.40;;;;;;;25.87;46.14;94782.09;5037266;28;20211;-74
2023/09/14 06:40:07;;;;;;;1.55;1.30;;;;;;;25.68;46.09;94791.94;5037932;28;20211;-74
2023/09/14 06:42:35;;;;;;;1.52;1.40;;;;;;;25.12;46.83;94799.06;5048535;28;20599;-75
2023/09/14 06:45:01;;;;;;;1.30;1.10;;;;;;;25.09;46.89;94803.47;5049795;28;20253;-75
2023/09/14 06:47:28;;;;;;;1.58;1.25;;;;;;;24.77;47.32;94806.59;5044647;28;20216;-75
2023/09/14 06:49:57;;;;;;;2.15;1.50;;;;;;;25.60;45.92;94795.19;5043729;28;20567;-74
2023/09/14 06:52:24;;;;;;;1.25;1.00;;;;;;;26.70;44.45;94805.22;5053075;28;20281;-74
2023/09/14 06:54:51;;;;;;;2.70;1.83;;;;;;;27.66;42.94;94796.84;5037839;28;20583;-73
2023/09/14 06:57:18;;;;;;;2.65;1.48;;;;;;;28.66;39.96;94790.34;5037553;28;20754;-73
2023/09/14 06:59:45;;;;;;;1.45;1.33;;;;;;;28.21;40.45;94805.06;5033925;28;20218;-74
2023/09/14 07:02:12;;;;;;;1.63;1.33;;;;;;;26.86;43.15;94807.28;5039557;28;20212;-72
2023/09/14 07:04:38;;;;;;;1.52;1.35;;;;;;;27.28;43.19;94802.84;5040439;28;20341;-73
2023/09/14 07:07:06;;;;;;;1.63;1.20;;;;;;;28.06;42.17;94806.59;5041533;28;20207;-74
2023/09/14 07:09:33;;;;;;;3.95;1.85;;;;;;;27.26;42.59;94808.06;5045081;28;20578;-74
2023/09/14 07:12:02;;;;;;;3.03;2.20;;;;;;;27.64;42.10;94804.84;5045358;28;20222;-74
2023/09/14 07:14:28;;;;;;;2.25;1.73;;;;;;;28.45;41.17;94797.25;5039690;28;20239;-73
2023/09/14 07:16:55;;;;;;;1.30;1.17;;;;;;;28.22;41.27;94808.63;5034904;28;21308;-74
2023/09/14 07:19:26;;;;;;;1.92;1.67;;;;;;;28.76;40.47;94805.19;5042888;28;20203;-74
2023/09/14 07:21:54;;;;;;;2.75;1.75;;;;;;;28.11;41.75;94810.88;5047764;28;20962;-74
2023/09/14 07:24:22;;;;;;;2.80;1.77;;;;;;;28.12;41.94;94807.66;5045966;28;20212;-74
2023/09/14 07:26:49;;;;;;;1.50;1.25;;;;;;;26.96;43.01;94811.09;5050311;28;20276;-75
2023/09/14 07:29:16;;;;;;;1.50;1.30;;;;;;;27.02;43.47;94803.81;5049234;28;20253;-74
2023/09/14 07:31:43;;;;;;;2.88;1.77;;;;;;;26.33;44.63;94805.53;5047889;28;20204;-75
2023/09/14 07:34:09;;;;;;;1.85;1.35;;;;;;;26.81;43.58;94822.47;5050665;28;20368;-75
2023/09/14 07:36:36;;;;;;;1.77;1.67;;;;;;;26.82;43.64;94814.91;5051988;28;20218;-75
2023/09/14 07:39:03;;;;;;;2.47;2.28;;;;;;;27.52;42.65;94809.06;5051215;28;21015;-76
2023/09/14 07:41:31;;;;;;;3.15;1.40;;;;;;;27.76;42.77;94818.06;5053118;28;20269;-75
2023/09/14 07:43:58;;;;;;;1.90;1.35;;;;;;;26.15;43.88;94828.81;5050794;28;20204;-75
2023/09/14 07:46:25;;;;;;;3.47;1.88;;;;;;;25.88;45.59;94821.75;5049004;28;20277;-74
2023/09/14 07:48:52;;;;;;;1.88;1.65;;;;;;;26.65;44.49;94824.41;5047985;28;20203;-75
2023/09/14 07:51:19;;;;;;;1.58;1.45;;;;;;;26.87;43.41;94815.19;5050689;28;20226;-75
2023/09/14 07:53:45;;;;;;;1.45;1.27;;;;;;;26.25;44.76;94817.94;5048995;28;20210;-75
2023/09/14 07:56:13;;;;;;;1.88;1.40;;;;;;;26.45;45.29;94818.81;5050229;28;20231;-75
2023/09/14 07:58:41;;;;;;;2.30;1.38;;;;;;;26.84;44.97;94816.06;5048178;28;20213;-75
2023/09/14 08:01:08;;;;;;;1.80;1.40;;;;;;;26.49;44.61;94817.53;5048475;28;20595;-75
2023/09/14 08:03:34;;;;;;;1.63;1.35;;;;;;;26.33;44.92;94811.09;5052175;28;20214;-76
2023/09/14 08:06:01;;;;;;;1.67;1.42;;;;;;;26.72;44.73;94813.91;5050422;28;20226;-76
2023/09/14 08:08:28;;;;;;;1.98;1.33;;;;;;;27.13;42.85;94807.94;5047043;28;20210;-75
2023/09/14 08:10:56;;;;;;;2.45;1.73;;;;;;;27.39;42.09;94799.81;5047312;28;20549;-75
2023/09/14 08:13:23;;;;;;;1.95;1.70;;;;;;;27.80;41.31;94802.09;5045532;28;20282;-76
2023/09/14 08:15:51;;;;;;;1.83;1.25;;;;;;;27.41;41.55;94805.75;5048874;28;20676;-74
2023/09/14 08:18:18;;;;;;;1.75;1.58;;;;;;;27.48;41.45;94791.66;5052462;28;20611;-76
2023/09/14 08:20:46;;;;;;;1.65;1.38;;;;;;;27.01;41.77;94796.69;5052351;28;20218;-76
2023/09/14 08:23:15;;;;;;;2.55;1.17;;;;;;;27.10;41.65;94799.66;5051880;28;20246;-74
2023/09/14 08:25:43;;;;;;;1.83;1.42;;;;;;;27.08;42.85;94799.31;5052276;28;20211;-76
2023/09/14 08:28:11;;;;;;;1.85;1.42;;;;;;;27.30;41.31;94797.66;5052344;28;20623;-76
2023/09/14 08:30:38;;;;;;;1.90;1.25;;;;;;;27.73;40.96;94796.69;5052009;28;20294;-76
2023/09/14 08:33:06;;;;;;;1.50;1.40;;;;;;;26.82;41.91;94799.00;5051870;28;20204;-74
2023/09/14 08:35:34;;;;;;;3.78;2.00;;;;;;;28.00;40.03;94793.66;5051672;28;20301;-74
2023/09/14 08:38:02;;;;;;;2.33;1.63;;;;;;;28.40;39.52;94783.09;5051873;28;20227;-75
2023/09/14 08:40:29;;;;;;;1.20;1.02;;;;;;;27.78;40.54;94788.59;5052179;28;20215;-74
2023/09/14 08:42:57;;;;;;;1.42;1.33;;;;;;;28.21;40.21;94782.75;5052076;28;20643;-75
2023/09/14 08:45:25;;;;;;;1.95;1.60;;;;;;;28.02;40.96;94791.97;5051503;28;20565;-75
2023/09/14 08:47:53;;;;;;;1.50;1.17;;;;;;;27.78;40.04;94787.81;5052305;28;20608;-77
2023/09/14 08:50:24;;;;;;;2.05;1.45;;;;;;;28.38;39.78;94786.31;5051744;28;20292;-76
2023/09/14 08:52:51;;;;;;;2.22;1.20;;;;;;;29.06;38.87;94784.44;5052217;28;20256;-76
2023/09/14 08:55:20;;;;;;;1.63;1.10;;;;;;;29.55;37.34;94766.22;5051502;28;20240;-76
2023/09/14 08:57:48;;;;;;;2.53;1.23;;;;;;;29.82;37.23;94762.16;5052531;28;20709;-76
2023/09/14 09:00:17;;;;;;;2.28;1.75;;;;;;;29.83;37.44;94758.16;5051370;28;20239;-76
2023/09/14 09:02:44;;;;;;;2.03;1.50;;;;;;;30.08;36.73;94751.75;5058975;28;20207;-76
2023/09/14 09:05:12;;;;;;;1.42;1.13;;;;;;;30.25;36.09;94756.75;5051463;28;20667;-76
2023/09/14 09:07:41;;;;;;;2.67;1.90;;;;;;;29.97;36.59;94754.91;5051591;28;20323;-76
2023/09/14 09:10:11;;;;;;;1.02;0.93;;;;;;;29.78;37.05;94751.13;5051526;28;20216;-76
2023/09/14 09:12:38;;;;;;;1.40;1.20;;;;;;;28.71;38.16;94759.09;5051534;28;20747;-76
2023/09/14 09:15:07;;;;;;;1.85;1.33;;;;;;;29.11;37.44;94736.47;5051060;28;20227;-75
2023/09/14 09:17:39;;;;;;;1.77;1.38;;;;;;;28.52;38.21;94746.91;5051580;28;20203;-76
2023/09/14 09:20:14;;;;;;;2.50;1.35;;;;;;;28.50;38.89;94742.97;5051814;28;20292;-76
2023/09/14 09:22:43;;;;;;;1.15;1.00;;;;;;;28.85;38.74;94736.41;5051793;28;20211;-74
2023/09/14 09:25:11;;;;;;;2.00;1.40;;;;;;;29.22;37.68;94731.34;5050669;28;20235;-75
2023/09/14 09:27:38;;;;;;;1.98;1.42;;;;;;;29.74;37.02;94716.16;5051116;28;20272;-75
2023/09/14 09:30:06;;;;;;;1.70;1.40;;;;;;;29.89;36.88;94712.44;5050914;28;20237;-76
2023/09/14 09:32:33;;;;;;;1.30;1.20;;;;;;;30.17;36.47;94716.31;5051235;28;20265;-76
2023/09/14 09:35:17;;;;;;;1.42;1.27;;;;;;;30.95;35.43;94719.09;5050732;28;20235;-76
2023/09/14 09:37:45;;;;;;;1.35;1.20;;;;;;;31.31;35.06;94706.53;5051053;28;20211;-74
2023/09/14 09:40:16;;;;;;;1.13;1.02;;;;;;;31.35;35.13;94709.97;5050679;28;20317;-76
2023/09/14 09:42:43;;;;;;;1.90;1.20;;;;;;;30.53;36.07;94715.03;5051530;28;20668;-74
2023/09/14 09:45:11;;;;;;;1.83;1.50;;;;;;;29.88;36.41;94724.84;5050223;28;20219;-76
2023/09/14 09:47:38;;;;;;;1.05;0.82;;;;;;;30.84;34.93;94715.91;5050902;28;20207;-75
2023/09/14 09:50:09;;;;;;;2.40;1.63;;;;;;;29.95;36.24;94721.03;5050526;28;20200;-74
2023/09/14 09:52:36;;;;;;;1.23;1.05;;;;;;;29.46;36.36;94720.66;5050643;28;20208;-75
2023/09/14 09:55:05;;;;;;;1.85;1.10;;;;;;;29.91;36.64;94714.78;5050174;28;20228;-75
2023/09/14 09:57:36;;;;;;;1.65;1.20;;;;;;;29.33;37.68;94715.06;5050470;28;20657;-74
2023/09/14 10:00:12;;;;;;;1.70;1.15;;;;;;;28.86;37.04;94726.03;5049680;28;20290;-75
2023/09/14 10:02:40;;;;;;;1.10;1.00;;;;;;;29.09;37.31;94716.59;5058347;28;20222;-75
2023/09/14 10:05:08;;;;;;;1.95;1.35;;;;;;;29.07;36.21;94713.47;5050029;28;20230;-76
2023/09/14 10:07:39;;;;;;;1.77;1.27;;;;;;;28.83;36.77;94724.16;5050348;28;20239;-75
2023/09/14 10:10:08;;;;;;;1.95;1.75;;;;;;;28.94;37.45;94722.63;5050210;28;20549;-75
2023/09/14 10:12:39;;;;;;;1.92;1.42;;;;;;;29.62;36.51;94709.38;5050176;28;20246;-75
2023/09/14 10:15:07;;;;;;;2.65;1.42;;;;;;;30.20;35.45;94704.22;5049668;28;20309;-77
2023/09/14 10:17:34;;;;;;;3.35;2.03;;;;;;;30.03;35.65;94702.84;5050209;28;20577;-75
2023/09/14 10:20:07;;;;;;;1.17;1.08;;;;;;;29.77;35.56;94704.88;5050174;28;20656;-76
2023/09/14 10:22:35;;;;;;;2.10;1.20;;;;;;;30.02;35.36;94696.47;5050428;28;20668;-76
2023/09/14 10:25:04;;;;;;;1.73;0.73;;;;;;;29.35;34.17;94695.84;5049978;28;20265;-77
2023/09/14 10:27:32;;;;;;;1.27;0.90;;;;;;;29.28;35.49;94690.47;5049625;28;20211;-76
2023/09/14 10:30:00;;;;;;;2.10;1.20;;;;;;;29.27;35.08;94686.13;5049730;28;20207;-75
2023/09/14 10:32:30;;;;;;;1.92;0.82;;;;;;;29.53;34.33;94690.47;5050503;28;20649;-77
2023/09/14 10:35:00;;;;;;;0.95;0.85;;;;;;;29.43;35.52;94677.66;5049528;28;20206;-76
2023/09/14 10:37:29;;;;;;;1.27;1.17;;;;;;;30.20;33.29;94676.28;5049676;28;20239;-75
2023/09/14 10:39:56;;;;;;;3.15;1.30;;;;;;;30.90;32.96;94662.91;5050059;28;20208;-74
2023/09/14 10:42:23;;;;;;;1.17;0.77;;;;;;;30.78;32.44;94675.75;5049979;28;20215;-75
2023/09/14 10:44:51;;;;;;;0.98;0.93;;;;;;;30.53;33.49;94675.88;5050254;28;20261;-76
2023/09/14 10:47:22;;;;;;;1.00;0.90;;;;;;;29.66;31.68;94660.53;5049058;28;20204;-76
2023/09/14 10:49:50;;;;;;;1.08;0.98;;;;;;;29.38;33.57;94669.88;5050156;28;20658;-76
2023/09/14 10:52:24;;;;;;;1.80;1.05;;;;;;;29.08;33.49;94670.41;5050123;28;20630;-76
2023/09/14 10:54:51;;;;;;;0.70;0.70;;;;;;;29.66;32.85;94665.31;5049997;28;20764;-76
2023/09/14 10:57:23;;;;;;;1.08;0.85;;;;;;;29.47;32.14;94658.78;5049473;28;20261;-76
2023/09/14 10:59:52;;;;;;;1.38;0.88;;;;;;;29.61;31.72;94658.31;5051961;28;20257;-72
2023/09/14 11:02:58;;;;;;;0.88;0.80;;;;;;;30.12;31.05;94652.59;5061071;28;20253;-73
2023/09/14 11:05:26;;;;;;;1.52;1.42;;;;;;;30.25;30.31;94650.53;5050085;28;20207;-72
2023/09/14 11:07:59;;;;;;;0.82;0.80;;;;;;;30.11;28.79;94651.03;5047360;28;20211;-73
2023/09/14 11:10:25;;;;;;;1.23;0.85;;;;;;;30.24;29.33;94654.56;5051892;28;20693;-73
2023/09/14 11:12:52;;;;;;;0.95;0.85;;;;;;;30.30;29.40;94646.38;5053515;28;20289;-72
2023/09/14 11:15:23;;;;;;;2.15;0.95;;;;;;;30.64;29.73;94639.94;5047720;28;20219;-71
2023/09/14 11:17:53;;;;;;;1.75;0.90;;;;;;;30.82;29.40;94637.25;5051230;28;20211;-72
2023/09/14 11:20:39;;;;;;;1.00;0.90;;;;;;;31.03;29.70;94633.59;5050065;28;20212;-73
2023/09/14 11:23:07;;;;;;;1.00;0.90;;;;;;;30.65;30.00;94642.28;5048484;28;20235;-71
2023/09/14 11:25:36;;;;;;;2.00;1.30;;;;;;;31.06;28.69;94635.47;5052767;28;20191;-72
2023/09/14 11:28:04;;;;;;;2.25;1.10;;;;;;;31.33;28.18;94632.03;5053385;28;20640;-72
2023/09/14 11:30:33;;;;;;;1.10;0.93;;;;;;;32.04;28.00;94634.69;5049326;28;20725;-72
2023/09/14 11:33:03;;;;;;;1.70;0.93;;;;;;;32.45;26.85;94621.28;5048188;28;20269;-73
2023/09/14 11:35:34;;;;;;;1.38;0.93;;;;;;;32.47;26.61;94624.41;5047167;28;20223;-72
2023/09/14 11:38:02;;;;;;;1.85;1.48;;;;;;;32.44;26.95;94623.31;5047892;28;20819;-72